createdAt,value
2023-01-17T00:00:27.185Z,2.77
2023-01-17T00:01:03.169Z,2.77
2023-01-17T00:01:30.962Z,2.77
2023-01-17T00:02:03.470Z,2.72
2023-01-17T00:02:34.707Z,2.72
2023-01-17T00:03:06.913Z,2.72
2023-01-17T00:03:38.717Z,2.72
2023-01-17T00:04:11.168Z,2.72
2023-01-17T00:04:42.681Z,2.72
2023-01-17T00:05:14.900Z,2.72
2023-01-17T00:05:46.689Z,2.72
2023-01-17T00:06:18.653Z,2.72
2023-01-17T00:06:50.640Z,2.61
2023-01-17T00:07:06.710Z,2.61
2023-01-17T00:07:51.019Z,2.61
2023-01-17T00:08:22.859Z,2.50
2023-01-17T00:08:54.395Z,2.38
2023-01-17T00:09:26.433Z,2.38
2023-01-17T00:09:58.429Z,2.27
2023-01-17T00:10:31.095Z,2.22
2023-01-17T00:11:03.001Z,2.11
2023-01-17T00:11:34.395Z,2.00
2023-01-17T00:12:06.385Z,2.00
2023-01-17T00:12:38.380Z,2.00
2023-01-17T00:13:10.759Z,1.88
2023-01-17T00:13:42.301Z,1.77
2023-01-17T00:14:14.226Z,1.72
2023-01-17T00:14:46.225Z,1.72
2023-01-17T00:15:18.929Z,1.61
2023-01-17T00:15:50.369Z,1.61
2023-01-17T00:16:22.736Z,1.50
2023-01-17T00:16:54.050Z,1.38
2023-01-17T00:17:26.099Z,1.27
2023-01-17T00:17:58.219Z,1.27
2023-01-17T00:18:30.412Z,1.27
2023-01-17T00:19:02.641Z,1.27
2023-01-17T00:19:34.103Z,1.27
2023-01-17T00:20:06.338Z,1.27
2023-01-17T00:20:38.100Z,1.22
2023-01-17T00:21:10.297Z,1.22
2023-01-17T00:21:41.964Z,1.22
2023-01-17T00:22:13.956Z,1.11
2023-01-17T00:22:46.127Z,1.11
2023-01-17T00:23:22.701Z,1.11
2023-01-17T00:23:50.100Z,1.00
2023-01-17T00:24:22.340Z,1.00
2023-01-17T00:24:53.861Z,1.00
2023-01-17T00:25:26.188Z,1.00
2023-01-17T00:25:57.791Z,1.00
2023-01-17T00:26:29.818Z,1.00
2023-01-17T00:27:02.603Z,1.00
2023-01-17T00:27:33.586Z,1.00
2023-01-17T00:27:49.971Z,1.00
2023-01-17T00:28:21.941Z,.88
2023-01-17T00:28:37.748Z,.88
2023-01-17T00:29:09.900Z,.88
2023-01-17T00:29:41.552Z,.88
2023-01-17T00:30:14.600Z,.88
2023-01-17T00:30:45.780Z,.88
2023-01-17T00:31:17.550Z,.88
2023-01-17T00:31:49.716Z,.88
2023-01-17T00:32:05.671Z,.88
2023-01-17T00:32:37.397Z,.88
2023-01-17T00:33:21.698Z,1.00
2023-01-17T00:33:53.271Z,1.00
2023-01-17T00:34:25.317Z,1.00
2023-01-17T00:34:57.423Z,1.00
2023-01-17T00:35:29.800Z,1.00
2023-01-17T00:36:01.937Z,1.00
2023-01-17T00:36:33.224Z,1.00
2023-01-17T00:37:05.498Z,1.00
2023-01-17T00:37:37.346Z,1.00
2023-01-17T00:38:09.612Z,1.00
2023-01-17T00:38:41.268Z,1.00
2023-01-17T00:39:13.225Z,1.00
2023-01-17T00:39:45.378Z,1.00
2023-01-17T00:40:17.496Z,1.00
2023-01-17T00:40:49.180Z,1.11
2023-01-17T00:41:05.488Z,1.11
2023-01-17T00:41:49.298Z,1.11
2023-01-17T00:42:21.542Z,1.11
2023-01-17T00:42:53.199Z,1.22
2023-01-17T00:43:24.996Z,1.22
2023-01-17T00:43:57.044Z,1.22
2023-01-17T00:44:29.152Z,1.22
2023-01-17T00:45:04.028Z,1.22
2023-01-17T00:45:32.835Z,1.22
2023-01-17T00:45:49.525Z,1.22
2023-01-17T00:46:21.004Z,1.22
2023-01-17T00:46:37.180Z,1.22
2023-01-17T00:47:08.922Z,1.22
2023-01-17T00:47:41.199Z,1.22
2023-01-17T00:48:12.933Z,1.22
2023-01-17T00:48:44.804Z,1.27
2023-01-17T00:49:16.947Z,1.27
2023-01-17T00:49:48.798Z,1.27
2023-01-17T00:50:05.551Z,1.27
2023-01-17T00:50:36.635Z,1.27
2023-01-17T00:51:20.801Z,1.27
2023-01-17T00:51:52.971Z,1.27
2023-01-17T00:52:24.639Z,1.27
2023-01-17T00:52:56.518Z,1.27
2023-01-17T00:53:28.748Z,1.27
2023-01-17T00:54:01.074Z,1.27
2023-01-17T00:54:32.627Z,1.38
2023-01-17T00:54:48.641Z,1.38
2023-01-17T00:55:35.586Z,1.38
2023-01-17T00:56:04.956Z,1.38
2023-01-17T00:56:36.613Z,1.38
2023-01-17T00:57:08.564Z,1.38
2023-01-17T00:57:40.744Z,1.38
2023-01-17T00:58:12.623Z,1.38
2023-01-17T00:58:44.492Z,1.38
2023-01-17T00:59:16.428Z,1.38
2023-01-17T00:59:48.328Z,1.38
2023-01-17T01:00:20.902Z,1.38
2023-01-17T01:00:52.749Z,1.27
2023-01-17T01:01:24.314Z,1.27
2023-01-17T01:01:56.483Z,1.27
2023-01-17T01:02:28.620Z,1.27
2023-01-17T01:03:00.756Z,1.27
2023-01-17T01:03:32.216Z,1.27
2023-01-17T01:03:48.239Z,1.27
2023-01-17T01:04:20.393Z,1.27
2023-01-17T01:05:04.748Z,1.27
2023-01-17T01:05:36.144Z,1.27
2023-01-17T01:06:08.063Z,1.27
2023-01-17T01:06:40.228Z,1.27
2023-01-17T01:07:12.198Z,1.27
2023-01-17T01:07:44.191Z,1.27
2023-01-17T01:08:16.008Z,1.27
2023-01-17T01:08:47.988Z,1.27
2023-01-17T01:09:20.085Z,1.27
2023-01-17T01:09:52.105Z,1.27
2023-01-17T01:10:24.068Z,1.27
2023-01-17T01:10:55.913Z,1.27
2023-01-17T01:11:27.905Z,1.27
2023-01-17T01:11:59.995Z,1.27
2023-01-17T01:12:32.084Z,1.27
2023-01-17T01:12:47.896Z,1.38
2023-01-17T01:13:31.870Z,1.38
2023-01-17T01:14:04.172Z,1.38
2023-01-17T01:14:35.770Z,1.38
2023-01-17T01:15:08.786Z,1.38
2023-01-17T01:15:39.745Z,1.38
2023-01-17T01:16:11.827Z,1.38
2023-01-17T01:16:43.633Z,1.38
2023-01-17T01:17:15.616Z,1.38
2023-01-17T01:17:47.531Z,1.38
2023-01-17T01:18:03.934Z,1.38
2023-01-17T01:18:47.631Z,1.38
2023-01-17T01:19:20.191Z,1.38
2023-01-17T01:19:51.681Z,1.38
2023-01-17T01:20:23.784Z,1.38
2023-01-17T01:20:55.589Z,1.38
2023-01-17T01:21:27.517Z,1.38
2023-01-17T01:21:59.606Z,1.38
2023-01-17T01:22:31.624Z,1.38
2023-01-17T01:22:47.611Z,1.38
2023-01-17T01:23:19.602Z,1.38
2023-01-17T01:23:35.514Z,1.38
2023-01-17T01:24:07.363Z,1.38
2023-01-17T01:24:39.285Z,1.38
2023-01-17T01:25:11.940Z,1.38
2023-01-17T01:25:43.407Z,1.38
2023-01-17T01:26:15.189Z,1.38
2023-01-17T01:26:47.265Z,1.38
2023-01-17T01:27:03.911Z,1.38
2023-01-17T01:27:35.244Z,1.38
2023-01-17T01:28:19.361Z,1.38
2023-01-17T01:28:51.296Z,1.38
2023-01-17T01:29:23.205Z,1.38
2023-01-17T01:29:55.202Z,1.38
2023-01-17T01:30:27.543Z,1.38
2023-01-17T01:30:59.067Z,1.27
2023-01-17T01:31:31.256Z,1.27
2023-01-17T01:32:03.338Z,1.27
2023-01-17T01:32:35.078Z,1.27
2023-01-17T01:33:06.898Z,1.27
2023-01-17T01:33:38.919Z,1.27
2023-01-17T01:34:11.387Z,1.27
2023-01-17T01:34:43.115Z,1.27
2023-01-17T01:35:14.984Z,1.27
2023-01-17T01:35:46.947Z,1.27
2023-01-17T01:36:03.070Z,1.27
2023-01-17T01:36:46.955Z,1.27
2023-01-17T01:37:18.948Z,1.27
2023-01-17T01:37:51.002Z,1.38
2023-01-17T01:38:22.832Z,1.38
2023-01-17T01:38:54.763Z,1.38
2023-01-17T01:39:26.847Z,1.38
2023-01-17T01:39:58.687Z,1.38
2023-01-17T01:40:31.360Z,1.38
2023-01-17T01:40:46.821Z,1.38
2023-01-17T01:41:18.640Z,1.38
2023-01-17T01:41:34.815Z,1.38
2023-01-17T01:42:06.437Z,1.38
2023-01-17T01:42:38.619Z,1.38
2023-01-17T01:43:10.755Z,1.38
2023-01-17T01:43:42.623Z,1.38
2023-01-17T01:44:14.492Z,1.38
2023-01-17T01:44:46.583Z,1.38
2023-01-17T01:45:05.649Z,1.38
2023-01-17T01:45:34.448Z,1.38
2023-01-17T01:46:18.486Z,1.38
2023-01-17T01:46:50.590Z,1.38
2023-01-17T01:47:22.382Z,1.50
2023-01-17T01:47:54.256Z,1.50
2023-01-17T01:48:26.437Z,1.50
2023-01-17T01:48:58.271Z,1.50
2023-01-17T01:49:30.456Z,1.50
2023-01-17T01:49:46.465Z,1.50
2023-01-17T01:50:32.246Z,1.50
2023-01-17T01:51:03.187Z,1.50
2023-01-17T01:51:34.121Z,1.50
2023-01-17T01:52:06.131Z,1.50
2023-01-17T01:52:38.271Z,1.50
2023-01-17T01:53:10.677Z,1.50
2023-01-17T01:53:42.137Z,1.38
2023-01-17T01:54:14.180Z,1.38
2023-01-17T01:54:46.176Z,1.38
2023-01-17T01:55:18.446Z,1.38
2023-01-17T01:55:50.187Z,1.38
2023-01-17T01:56:22.126Z,1.38
2023-01-17T01:56:53.937Z,1.38
2023-01-17T01:57:26.069Z,1.38
2023-01-17T01:57:57.768Z,1.38
2023-01-17T01:58:30.048Z,1.38
2023-01-17T01:58:46.174Z,1.38
2023-01-17T01:59:17.880Z,1.38
2023-01-17T01:59:33.994Z,1.38
2023-01-17T02:00:11.805Z,1.38
2023-01-17T02:00:37.878Z,1.38
2023-01-17T02:01:12.095Z,1.38
2023-01-17T02:01:43.595Z,1.38
2023-01-17T02:02:13.817Z,1.38
2023-01-17T02:02:45.664Z,1.38
2023-01-17T02:03:02.503Z,1.38
2023-01-17T02:03:33.603Z,1.38
2023-01-17T02:04:17.694Z,1.38
2023-01-17T02:04:49.540Z,1.38
2023-01-17T02:05:22.050Z,1.27
2023-01-17T02:05:53.677Z,1.27
2023-01-17T02:06:25.644Z,1.27
2023-01-17T02:06:57.639Z,1.27
2023-01-17T02:07:29.534Z,1.27
2023-01-17T02:07:45.798Z,1.27
2023-01-17T02:08:29.671Z,1.27
2023-01-17T02:09:02.823Z,1.27
2023-01-17T02:09:33.291Z,1.27
2023-01-17T02:10:05.858Z,1.27
2023-01-17T02:10:37.436Z,1.27
2023-01-17T02:11:09.365Z,1.38
2023-01-17T02:11:41.897Z,1.38
2023-01-17T02:12:13.320Z,1.38
2023-01-17T02:12:45.391Z,1.38
2023-01-17T02:13:17.416Z,1.38
2023-01-17T02:13:49.184Z,1.38
2023-01-17T02:14:21.454Z,1.38
2023-01-17T02:14:53.310Z,1.38
2023-01-17T02:15:25.600Z,1.38
2023-01-17T02:15:57.299Z,1.38
2023-01-17T02:16:29.498Z,1.50
2023-01-17T02:17:01.896Z,1.50
2023-01-17T02:17:33.161Z,1.50
2023-01-17T02:18:05.473Z,1.50
2023-01-17T02:18:37.005Z,1.50
2023-01-17T02:19:09.028Z,1.50
2023-01-17T02:19:41.494Z,1.50
2023-01-17T02:20:13.393Z,1.50
2023-01-17T02:20:44.917Z,1.50
2023-01-17T02:21:01.681Z,1.50
2023-01-17T02:21:33.061Z,1.50
2023-01-17T02:22:17.058Z,1.50
2023-01-17T02:22:48.906Z,1.50
2023-01-17T02:23:21.033Z,1.50
2023-01-17T02:23:52.917Z,1.50
2023-01-17T02:24:24.922Z,1.38
2023-01-17T02:24:56.923Z,1.38
2023-01-17T02:25:28.982Z,1.38
2023-01-17T02:26:00.873Z,1.38
2023-01-17T02:26:32.936Z,1.38
2023-01-17T02:27:04.900Z,1.38
2023-01-17T02:27:36.612Z,1.38
2023-01-17T02:28:08.733Z,1.38
2023-01-17T02:28:40.819Z,1.38
2023-01-17T02:29:12.836Z,1.38
2023-01-17T02:29:44.678Z,1.38
2023-01-17T02:30:04.192Z,1.38
2023-01-17T02:30:44.665Z,1.38
2023-01-17T02:31:16.697Z,1.38
2023-01-17T02:31:48.544Z,1.38
2023-01-17T02:32:20.373Z,1.38
2023-01-17T02:32:52.632Z,1.38
2023-01-17T02:33:24.412Z,1.38
2023-01-17T02:33:56.524Z,1.38
2023-01-17T02:34:28.386Z,1.38
2023-01-17T02:34:44.556Z,1.38
2023-01-17T02:35:16.693Z,1.38
2023-01-17T02:35:32.938Z,1.38
2023-01-17T02:36:04.568Z,1.38
2023-01-17T02:36:36.285Z,1.38
2023-01-17T02:37:08.333Z,1.27
2023-01-17T02:37:40.430Z,1.27
2023-01-17T02:38:12.705Z,1.38
2023-01-17T02:38:44.213Z,1.38
2023-01-17T02:39:00.283Z,1.38
2023-01-17T02:39:32.665Z,1.38
2023-01-17T02:40:16.575Z,1.38
2023-01-17T02:40:48.217Z,1.38
2023-01-17T02:41:20.010Z,1.38
2023-01-17T02:41:52.408Z,1.38
2023-01-17T02:42:24.168Z,1.38
2023-01-17T02:42:56.107Z,1.38
2023-01-17T02:43:27.924Z,1.38
2023-01-17T02:43:44.114Z,1.38
2023-01-17T02:44:27.880Z,1.38
2023-01-17T02:45:00.012Z,1.27
2023-01-17T02:45:32.803Z,1.27
2023-01-17T02:46:04.023Z,1.27
2023-01-17T02:46:36.011Z,1.27
2023-01-17T02:47:08.009Z,1.27
2023-01-17T02:47:39.920Z,1.27
2023-01-17T02:48:12.054Z,1.27
2023-01-17T02:48:43.898Z,1.38
2023-01-17T02:49:15.864Z,1.38
2023-01-17T02:49:47.849Z,1.38
2023-01-17T02:50:19.959Z,1.38
2023-01-17T02:50:51.856Z,1.38
2023-01-17T02:51:23.771Z,1.38
2023-01-17T02:51:55.790Z,1.38
2023-01-17T02:52:27.482Z,1.38
2023-01-17T02:52:43.805Z,1.38
2023-01-17T02:53:15.565Z,1.38
2023-01-17T02:53:32.056Z,1.38
2023-01-17T02:54:03.780Z,1.27
2023-01-17T02:54:35.652Z,1.27
2023-01-17T02:55:07.860Z,1.27
2023-01-17T02:55:39.508Z,1.27
2023-01-17T02:56:11.859Z,1.27
2023-01-17T02:56:43.388Z,1.38
2023-01-17T02:56:59.610Z,1.38
2023-01-17T02:57:31.804Z,1.38
2023-01-17T02:58:15.527Z,1.38
2023-01-17T02:58:47.517Z,1.38
2023-01-17T02:59:19.284Z,1.38
2023-01-17T02:59:52.540Z,1.38
2023-01-17T03:00:28.848Z,1.38
2023-01-17T03:00:55.467Z,1.38
2023-01-17T03:01:27.517Z,1.38
2023-01-17T03:01:43.600Z,1.38
2023-01-17T03:02:27.302Z,1.38
2023-01-17T03:02:59.285Z,1.38
2023-01-17T03:03:31.625Z,1.38
2023-01-17T03:04:03.928Z,1.38
2023-01-17T03:04:35.162Z,1.38
2023-01-17T03:05:07.383Z,1.27
2023-01-17T03:05:39.256Z,1.27
2023-01-17T03:06:11.289Z,1.27
2023-01-17T03:06:43.137Z,1.27
2023-01-17T03:06:59.087Z,1.27
2023-01-17T03:07:43.070Z,1.22
2023-01-17T03:08:15.296Z,1.22
2023-01-17T03:08:47.011Z,1.22
2023-01-17T03:09:18.992Z,1.22
2023-01-17T03:09:51.399Z,1.22
2023-01-17T03:10:23.329Z,1.22
2023-01-17T03:10:54.911Z,1.22
2023-01-17T03:11:26.908Z,1.22
2023-01-17T03:11:58.870Z,1.22
2023-01-17T03:12:30.936Z,1.22
2023-01-17T03:13:03.719Z,1.22
2023-01-17T03:13:34.762Z,1.22
2023-01-17T03:14:06.808Z,1.22
2023-01-17T03:14:38.883Z,1.22
2023-01-17T03:15:16.224Z,1.22
2023-01-17T03:15:42.966Z,1.22
2023-01-17T03:16:14.807Z,1.22
2023-01-17T03:16:46.840Z,1.22
2023-01-17T03:17:18.547Z,1.11
2023-01-17T03:17:50.965Z,1.11
2023-01-17T03:18:22.840Z,1.00
2023-01-17T03:18:54.627Z,1.00
2023-01-17T03:19:26.569Z,1.00
2023-01-17T03:19:58.457Z,1.00
2023-01-17T03:20:30.878Z,1.00
2023-01-17T03:21:03.534Z,1.00
2023-01-17T03:21:34.294Z,1.00
2023-01-17T03:22:06.441Z,1.00
2023-01-17T03:22:38.507Z,1.00
2023-01-17T03:23:10.666Z,1.00
2023-01-17T03:23:42.835Z,.88
2023-01-17T03:23:58.338Z,.88
2023-01-17T03:24:42.715Z,.88
2023-01-17T03:25:14.669Z,.88
2023-01-17T03:25:46.230Z,.88
2023-01-17T03:26:18.124Z,.88
2023-01-17T03:26:50.161Z,.88
2023-01-17T03:27:22.302Z,.88
2023-01-17T03:27:54.287Z,.88
2023-01-17T03:28:26.159Z,.88
2023-01-17T03:28:42.616Z,.88
2023-01-17T03:29:13.980Z,.88
2023-01-17T03:29:30.209Z,.88
2023-01-17T03:30:06.246Z,.88
2023-01-17T03:30:33.868Z,.88
2023-01-17T03:31:06.081Z,.88
2023-01-17T03:31:38.055Z,.88
2023-01-17T03:32:09.960Z,.88
2023-01-17T03:32:42.375Z,.88
2023-01-17T03:32:57.972Z,.88
2023-01-17T03:33:29.924Z,.88
2023-01-17T03:34:13.975Z,.88
2023-01-17T03:34:45.937Z,.88
2023-01-17T03:35:18.074Z,.88
2023-01-17T03:35:49.977Z,.88
2023-01-17T03:36:21.969Z,.88
2023-01-17T03:36:53.918Z,.88
2023-01-17T03:37:25.777Z,.88
2023-01-17T03:37:42.238Z,.88
2023-01-17T03:38:25.672Z,.88
2023-01-17T03:38:57.669Z,.88
2023-01-17T03:39:29.747Z,.88
2023-01-17T03:40:02.745Z,.88
2023-01-17T03:40:33.626Z,.88
2023-01-17T03:41:05.692Z,.88
2023-01-17T03:41:37.794Z,.88
2023-01-17T03:42:09.600Z,.88
2023-01-17T03:42:42.131Z,.88
2023-01-17T03:42:57.732Z,.88
2023-01-17T03:43:41.982Z,.88
2023-01-17T03:44:13.609Z,.88
2023-01-17T03:44:45.529Z,.88
2023-01-17T03:45:18.494Z,.88
2023-01-17T03:45:49.442Z,.88
2023-01-17T03:46:21.801Z,.88
2023-01-17T03:46:53.443Z,.88
2023-01-17T03:47:25.233Z,.88
2023-01-17T03:47:57.470Z,.88
2023-01-17T03:48:29.468Z,.88
2023-01-17T03:49:02.020Z,.88
2023-01-17T03:49:33.286Z,.88
2023-01-17T03:50:05.864Z,.88
2023-01-17T03:50:37.353Z,.88
2023-01-17T03:51:09.169Z,.88
2023-01-17T03:51:41.628Z,.88
2023-01-17T03:51:57.367Z,.88
2023-01-17T03:52:29.161Z,.88
2023-01-17T03:53:13.192Z,.88
2023-01-17T03:53:29.343Z,.88
2023-01-17T03:54:13.105Z,1.00
2023-01-17T03:54:29.210Z,1.00
2023-01-17T03:55:13.491Z,1.00
2023-01-17T03:55:45.162Z,1.00
2023-01-17T03:56:17.032Z,1.00
2023-01-17T03:56:48.965Z,1.00
2023-01-17T03:57:21.284Z,1.00
2023-01-17T03:57:53.115Z,1.00
2023-01-17T03:58:24.794Z,1.00
2023-01-17T03:58:41.409Z,1.00
2023-01-17T03:59:24.903Z,1.00
2023-01-17T03:59:56.866Z,1.00
2023-01-17T04:00:29.368Z,1.00
2023-01-17T04:01:01.235Z,1.00
2023-01-17T04:01:33.082Z,1.00
2023-01-17T04:02:04.970Z,1.00
2023-01-17T04:02:36.942Z,1.00
2023-01-17T04:03:08.690Z,1.00
2023-01-17T04:03:41.076Z,1.11
2023-01-17T04:04:13.105Z,1.11
2023-01-17T04:04:44.786Z,1.11
2023-01-17T04:05:16.897Z,1.11
2023-01-17T04:05:48.726Z,1.11
2023-01-17T04:06:20.911Z,1.11
2023-01-17T04:06:52.786Z,1.11
2023-01-17T04:07:24.465Z,1.11
2023-01-17T04:07:40.994Z,1.11
2023-01-17T04:08:12.904Z,1.11
2023-01-17T04:08:28.572Z,1.11
2023-01-17T04:09:00.680Z,1.11
2023-01-17T04:09:32.764Z,1.11
2023-01-17T04:10:04.954Z,1.11
2023-01-17T04:10:36.414Z,1.11
2023-01-17T04:11:08.547Z,1.11
2023-01-17T04:11:40.450Z,1.11
2023-01-17T04:11:56.367Z,1.11
2023-01-17T04:12:28.550Z,1.11
2023-01-17T04:13:12.717Z,1.00
2023-01-17T04:13:44.232Z,1.00
2023-01-17T04:14:16.256Z,1.00
2023-01-17T04:14:48.334Z,1.00
2023-01-17T04:15:20.760Z,1.00
2023-01-17T04:15:52.651Z,1.00
2023-01-17T04:16:24.256Z,1.00
2023-01-17T04:16:40.369Z,1.00
2023-01-17T04:17:24.264Z,1.00
2023-01-17T04:17:56.128Z,1.00
2023-01-17T04:18:28.189Z,.88
2023-01-17T04:19:00.116Z,.88
2023-01-17T04:19:32.412Z,.88
2023-01-17T04:20:04.764Z,.88
2023-01-17T04:20:36.100Z,.88
2023-01-17T04:21:07.926Z,.88
2023-01-17T04:21:40.154Z,.88
2023-01-17T04:22:12.251Z,.88
2023-01-17T04:22:44.005Z,.77
2023-01-17T04:23:15.892Z,.77
2023-01-17T04:23:47.866Z,.77
2023-01-17T04:24:19.865Z,.77
2023-01-17T04:24:52.220Z,.72
2023-01-17T04:25:23.974Z,.72
2023-01-17T04:25:55.764Z,.61
2023-01-17T04:26:27.805Z,.61
2023-01-17T04:26:59.975Z,.61
2023-01-17T04:27:31.886Z,.50
2023-01-17T04:28:04.188Z,.50
2023-01-17T04:28:35.699Z,.50
2023-01-17T04:29:07.509Z,.50
2023-01-17T04:29:39.633Z,.50
2023-01-17T04:29:55.611Z,.50
2023-01-17T04:30:27.891Z,.38
2023-01-17T04:31:12.217Z,.38
2023-01-17T04:31:43.599Z,.38
2023-01-17T04:32:15.517Z,.38
2023-01-17T04:32:47.639Z,.38
2023-01-17T04:33:19.593Z,.38
2023-01-17T04:33:51.954Z,.38
2023-01-17T04:34:23.531Z,.38
2023-01-17T04:34:55.609Z,.38
2023-01-17T04:35:27.871Z,.38
2023-01-17T04:35:59.472Z,.50
2023-01-17T04:36:31.657Z,.50
2023-01-17T04:37:04.237Z,.50
2023-01-17T04:37:35.280Z,.50
2023-01-17T04:38:07.221Z,.50
2023-01-17T04:38:39.306Z,.50
2023-01-17T04:38:55.380Z,.50
2023-01-17T04:39:39.245Z,.50
2023-01-17T04:40:14.377Z,.38
2023-01-17T04:40:43.125Z,.38
2023-01-17T04:41:15.166Z,.38
2023-01-17T04:41:47.113Z,.38
2023-01-17T04:42:19.307Z,.38
2023-01-17T04:42:51.435Z,.38
2023-01-17T04:43:23.162Z,.38
2023-01-17T04:43:54.975Z,.38
2023-01-17T04:44:27.038Z,.38
2023-01-17T04:44:58.794Z,.38
2023-01-17T04:45:31.587Z,.38
2023-01-17T04:46:03.891Z,.38
2023-01-17T04:46:34.865Z,.38
2023-01-17T04:47:07.042Z,.38
2023-01-17T04:47:38.843Z,.38
2023-01-17T04:47:54.893Z,.38
2023-01-17T04:48:26.791Z,.38
2023-01-17T04:49:11.046Z,.27
2023-01-17T04:49:44.196Z,.27
2023-01-17T04:50:23.788Z,.27
2023-01-17T04:50:46.726Z,.27
2023-01-17T04:51:18.759Z,.27
2023-01-17T04:51:50.841Z,.27
2023-01-17T04:52:22.908Z,.27
2023-01-17T04:52:38.876Z,.27
2023-01-17T04:53:22.859Z,.38
2023-01-17T04:53:54.816Z,.38
2023-01-17T04:54:26.442Z,.38
2023-01-17T04:54:58.550Z,.38
2023-01-17T04:55:35.750Z,.27
2023-01-17T04:56:03.279Z,.27
2023-01-17T04:56:34.354Z,.27
2023-01-17T04:57:06.471Z,.27
2023-01-17T04:57:38.608Z,.27
2023-01-17T04:58:10.730Z,.27
2023-01-17T04:58:42.585Z,.27
2023-01-17T04:59:14.307Z,.27
2023-01-17T04:59:46.387Z,.27
2023-01-17T05:00:23.972Z,.27
2023-01-17T05:00:50.177Z,.27
2023-01-17T05:01:22.685Z,.27
2023-01-17T05:01:38.997Z,.27
2023-01-17T05:02:10.251Z,.27
2023-01-17T05:02:26.306Z,.27
2023-01-17T05:02:58.326Z,.27
2023-01-17T05:03:30.094Z,.27
2023-01-17T05:04:02.960Z,.27
2023-01-17T05:04:34.172Z,.27
2023-01-17T05:05:06.328Z,.27
2023-01-17T05:05:38.091Z,.27
2023-01-17T05:05:54.873Z,.27
2023-01-17T05:06:25.943Z,.27
2023-01-17T05:07:10.245Z,.27
2023-01-17T05:07:42.277Z,.27
2023-01-17T05:08:13.952Z,.27
2023-01-17T05:08:46.031Z,.27
2023-01-17T05:09:18.075Z,.27
2023-01-17T05:09:49.835Z,.27
2023-01-17T05:10:22.630Z,.27
2023-01-17T05:10:38.099Z,.27
2023-01-17T05:11:22.349Z,.27
2023-01-17T05:11:58.971Z,.27
2023-01-17T05:12:25.743Z,.27
2023-01-17T05:12:57.781Z,.27
2023-01-17T05:13:29.719Z,.27
2023-01-17T05:14:03.032Z,.27
2023-01-17T05:14:33.718Z,.27
2023-01-17T05:15:12.219Z,.27
2023-01-17T05:15:37.797Z,.27
2023-01-17T05:16:09.984Z,.27
2023-01-17T05:16:41.845Z,.27
2023-01-17T05:17:13.676Z,.27
2023-01-17T05:17:45.595Z,.27
2023-01-17T05:18:17.604Z,.27
2023-01-17T05:18:49.604Z,.22
2023-01-17T05:19:22.130Z,.22
2023-01-17T05:19:53.553Z,.22
2023-01-17T05:20:25.927Z,.22
2023-01-17T05:20:57.413Z,.27
2023-01-17T05:21:29.447Z,.27
2023-01-17T05:22:02.002Z,.27
2023-01-17T05:22:33.485Z,.27
2023-01-17T05:23:05.547Z,.27
2023-01-17T05:23:37.505Z,.27
2023-01-17T05:23:53.430Z,.27
2023-01-17T05:24:25.347Z,.27
2023-01-17T05:25:09.696Z,.27
2023-01-17T05:25:41.382Z,.27
2023-01-17T05:26:13.332Z,.27
2023-01-17T05:26:45.233Z,.27
2023-01-17T05:27:17.201Z,.38
2023-01-17T05:27:49.068Z,.38
2023-01-17T05:28:05.351Z,.38
2023-01-17T05:28:37.417Z,.27
2023-01-17T05:29:21.519Z,.27
2023-01-17T05:29:53.433Z,.27
2023-01-17T05:30:29.409Z,.27
2023-01-17T05:30:57.166Z,.27
2023-01-17T05:31:32.126Z,.27
2023-01-17T05:32:01.874Z,.27
2023-01-17T05:32:32.933Z,.27
2023-01-17T05:33:05.357Z,.27
2023-01-17T05:33:21.480Z,.27
2023-01-17T05:33:53.199Z,.27
2023-01-17T05:34:09.211Z,.27
2023-01-17T05:34:40.964Z,.22
2023-01-17T05:35:13.323Z,.22
2023-01-17T05:35:49.077Z,.22
2023-01-17T05:36:16.989Z,.22
2023-01-17T05:36:48.664Z,.11
2023-01-17T05:37:21.215Z,.11
2023-01-17T05:37:37.000Z,.11
2023-01-17T05:38:08.735Z,.11
2023-01-17T05:38:24.884Z,.11
2023-01-17T05:38:56.599Z,.11
2023-01-17T05:39:28.705Z,.11
2023-01-17T05:40:01.884Z,.11
2023-01-17T05:40:32.742Z,.11
2023-01-17T05:41:05.332Z,.11
2023-01-17T05:41:36.688Z,.11
2023-01-17T05:41:53.205Z,.11
2023-01-17T05:42:24.966Z,.11
2023-01-17T05:43:08.586Z,.11
2023-01-17T05:43:40.689Z,.11
2023-01-17T05:44:12.559Z,.11
2023-01-17T05:44:44.467Z,.11
2023-01-17T05:45:17.804Z,.22
2023-01-17T05:45:51.059Z,.22
2023-01-17T05:46:20.471Z,.22
2023-01-17T05:46:52.700Z,.22
2023-01-17T05:47:24.467Z,.22
2023-01-17T05:47:56.242Z,.11
2023-01-17T05:48:12.677Z,.11
2023-01-17T05:48:44.161Z,.11
2023-01-17T05:49:28.395Z,.11
2023-01-17T05:50:01.089Z,.11
2023-01-17T05:50:32.582Z,.11
2023-01-17T05:51:09.488Z,.11
2023-01-17T05:51:36.272Z,.11
2023-01-17T05:52:08.341Z,.11
2023-01-17T05:52:40.132Z,.11
2023-01-17T05:53:12.604Z,.11
2023-01-17T05:53:44.175Z,.11
2023-01-17T05:54:16.201Z,.11
2023-01-17T05:54:47.934Z,.11
2023-01-17T05:55:24.223Z,.11
2023-01-17T05:55:52.491Z,.11
2023-01-17T05:56:24.177Z,.22
2023-01-17T05:56:55.904Z,.22
2023-01-17T05:57:27.992Z,.22
2023-01-17T05:57:59.979Z,.22
2023-01-17T05:58:32.473Z,.22
2023-01-17T05:59:04.477Z,.22
2023-01-17T05:59:37.293Z,.22
2023-01-17T05:59:52.554Z,.22
2023-01-17T06:00:29.101Z,.22
2023-01-17T06:01:08.023Z,.22
2023-01-17T06:01:39.756Z,.22
2023-01-17T06:02:11.699Z,.22
2023-01-17T06:02:43.955Z,.22
2023-01-17T06:03:15.609Z,.22
2023-01-17T06:03:47.621Z,.22
2023-01-17T06:04:19.955Z,.22
2023-01-17T06:04:51.952Z,.22
2023-01-17T06:05:24.098Z,.22
2023-01-17T06:05:55.548Z,.22
2023-01-17T06:06:27.636Z,.22
2023-01-17T06:06:59.632Z,.22
2023-01-17T06:07:31.989Z,.22
2023-01-17T06:08:04.166Z,.27
2023-01-17T06:08:35.470Z,.27
2023-01-17T06:09:07.531Z,.27
2023-01-17T06:09:39.645Z,.27
2023-01-17T06:10:11.722Z,.27
2023-01-17T06:10:43.568Z,.27
2023-01-17T06:11:15.389Z,.27
2023-01-17T06:11:47.414Z,.27
2023-01-17T06:12:24.186Z,.27
2023-01-17T06:12:35.437Z,.27
2023-01-17T06:13:07.425Z,.27
2023-01-17T06:13:23.382Z,.27
2023-01-17T06:13:55.434Z,.27
2023-01-17T06:14:27.179Z,.27
2023-01-17T06:14:59.205Z,.27
2023-01-17T06:15:36.700Z,.27
2023-01-17T06:16:04.189Z,.27
2023-01-17T06:16:35.136Z,.27
2023-01-17T06:16:51.296Z,.27
2023-01-17T06:17:23.689Z,.27
2023-01-17T06:18:12.229Z,.22
2023-01-17T06:18:39.213Z,.22
2023-01-17T06:19:11.201Z,.22
2023-01-17T06:19:43.156Z,.22
2023-01-17T06:20:15.180Z,.11
2023-01-17T06:20:48.342Z,.11
2023-01-17T06:21:18.963Z,.11
2023-01-17T06:21:35.112Z,.11
2023-01-17T06:22:18.903Z,.11
2023-01-17T06:22:51.091Z,.11
2023-01-17T06:23:23.148Z,.11
2023-01-17T06:23:54.782Z,.11
2023-01-17T06:24:26.667Z,.11
2023-01-17T06:24:58.857Z,.11
2023-01-17T06:25:36.311Z,.11
2023-01-17T06:26:03.455Z,.11
2023-01-17T06:26:34.836Z,.11
2023-01-17T06:27:06.787Z,0
2023-01-17T06:27:38.812Z,0
2023-01-17T06:28:10.872Z,0
2023-01-17T06:28:42.677Z,0
2023-01-17T06:29:14.710Z,0
2023-01-17T06:29:46.763Z,0
2023-01-17T06:30:19.214Z,0
2023-01-17T06:30:38.732Z,0
2023-01-17T06:31:06.651Z,0
2023-01-17T06:31:50.658Z,0
2023-01-17T06:32:22.947Z,0
2023-01-17T06:32:54.523Z,0
2023-01-17T06:33:26.443Z,0
2023-01-17T06:33:58.626Z,0
2023-01-17T06:34:30.580Z,0
2023-01-17T06:35:03.408Z,0
2023-01-17T06:35:34.560Z,0
2023-01-17T06:36:08.145Z,0
2023-01-17T06:36:38.427Z,0
2023-01-17T06:37:10.177Z,0
2023-01-17T06:37:42.249Z,0
2023-01-17T06:38:14.348Z,0
2023-01-17T06:38:46.352Z,0
2023-01-17T06:39:18.133Z,0
2023-01-17T06:39:34.426Z,0
2023-01-17T06:40:32.266Z,0
2023-01-17T06:40:36.147Z,0
2023-01-17T06:41:18.117Z,0
2023-01-17T06:41:50.312Z,0
2023-01-17T06:42:22.239Z,0
2023-01-17T06:42:54.063Z,0
2023-01-17T06:43:26.113Z,0
2023-01-17T06:43:58.040Z,0
2023-01-17T06:44:29.959Z,.11
2023-01-17T06:45:05.458Z,0
2023-01-17T06:45:34.190Z,0
2023-01-17T06:46:05.938Z,0
2023-01-17T06:46:26.383Z,0
2023-01-17T06:46:54.122Z,0
2023-01-17T06:47:37.983Z,0
2023-01-17T06:48:09.900Z,0
2023-01-17T06:48:41.767Z,0
2023-01-17T06:49:13.955Z,0
2023-01-17T06:49:45.946Z,-.11
2023-01-17T06:50:18.098Z,-.11
2023-01-17T06:50:49.737Z,-.11
2023-01-17T06:51:05.927Z,-.11
2023-01-17T06:51:55.149Z,-.11
2023-01-17T06:52:05.807Z,-.11
2023-01-17T06:52:49.654Z,-.11
2023-01-17T06:53:21.820Z,-.11
2023-01-17T06:53:53.951Z,-.11
2023-01-17T06:54:25.593Z,-.11
2023-01-17T06:54:57.554Z,-.11
2023-01-17T06:55:30.040Z,-.11
2023-01-17T06:56:02.217Z,-.11
2023-01-17T06:56:33.745Z,-.11
2023-01-17T06:57:05.877Z,-.11
2023-01-17T06:57:37.569Z,-.22
2023-01-17T06:58:09.816Z,-.22
2023-01-17T06:58:41.449Z,-.22
2023-01-17T06:59:13.673Z,-.22
2023-01-17T06:59:45.488Z,-.11
2023-01-17T07:00:18.284Z,-.11
2023-01-17T07:00:34.541Z,-.11
2023-01-17T07:01:17.480Z,-.11
2023-01-17T07:01:49.376Z,-.11
2023-01-17T07:02:21.362Z,-.11
2023-01-17T07:02:53.568Z,-.11
2023-01-17T07:03:20.895Z,-.22